sensor_id;sensor_type;location;lat;lon;timestamp;temperature;humidity
21331;DHT22;10824;51.632;4.950;2023-03-01T00:01:38;0.60;36.10
21331;DHT22;10824;51.632;4.950;2023-03-01T00:04:05;0.70;36.50
21331;DHT22;10824;51.632;4.950;2023-03-01T00:06:32;0.60;37.10
21331;DHT22;10824;51.632;4.950;2023-03-01T00:08:59;0.60;37.90
21331;DHT22;10824;51.632;4.950;2023-03-01T00:11:29;0.60;37.40
21331;DHT22;10824;51.632;4.950;2023-03-01T00:13:58;0.70;37.10
21331;DHT22;10824;51.632;4.950;2023-03-01T00:16:28;0.70;37.10
21331;DHT22;10824;51.632;4.950;2023-03-01T00:18:57;0.50;37.60
21331;DHT22;10824;51.632;4.950;2023-03-01T00:21:25;0.50;37.80
21331;DHT22;10824;51.632;4.950;2023-03-01T00:23:53;0.50;37.90
21331;DHT22;10824;51.632;4.950;2023-03-01T00:26:24;0.40;38.60
21331;DHT22;10824;51.632;4.950;2023-03-01T00:28:52;0.40;39.40
21331;DHT22;10824;51.632;4.950;2023-03-01T00:31:22;0.40;39.00
21331;DHT22;10824;51.632;4.950;2023-03-01T00:33:58;0.40;39.50
21331;DHT22;10824;51.632;4.950;2023-03-01T00:36:27;0.50;39.60
21331;DHT22;10824;51.632;4.950;2023-03-01T00:38:56;0.40;39.30
21331;DHT22;10824;51.632;4.950;2023-03-01T00:41:23;0.50;39.30
21331;DHT22;10824;51.632;4.950;2023-03-01T00:43:50;0.50;39.40
21331;DHT22;10824;51.632;4.950;2023-03-01T00:46:19;0.40;39.50
21331;DHT22;10824;51.632;4.950;2023-03-01T00:48:48;0.40;39.50
21331;DHT22;10824;51.632;4.950;2023-03-01T00:53:43;0.30;40.70
21331;DHT22;10824;51.632;4.950;2023-03-01T00:56:12;0.30;40.80
21331;DHT22;10824;51.632;4.950;2023-03-01T00:58:39;0.30;41.90
21331;DHT22;10824;51.632;4.950;2023-03-01T01:01:16;0.30;42.60
21331;DHT22;10824;51.632;4.950;2023-03-01T01:03:50;0.30;42.80
21331;DHT22;10824;51.632;4.950;2023-03-01T01:06:21;0.30;43.10
21331;DHT22;10824;51.632;4.950;2023-03-01T01:08:49;0.40;42.80
21331;DHT22;10824;51.632;4.950;2023-03-01T01:11:17;0.30;42.10
21331;DHT22;10824;51.632;4.950;2023-03-01T01:13:46;0.30;42.10
21331;DHT22;10824;51.632;4.950;2023-03-01T01:16:14;0.20;42.80
21331;DHT22;10824;51.632;4.950;2023-03-01T01:18:42;0.20;42.60
21331;DHT22;10824;51.632;4.950;2023-03-01T01:21:11;0.20;43.60
21331;DHT22;10824;51.632;4.950;2023-03-01T01:23:39;0.20;43.60
21331;DHT22;10824;51.632;4.950;2023-03-01T01:26:09;0.30;43.30
21331;DHT22;10824;51.632;4.950;2023-03-01T01:28:36;0.20;42.70
21331;DHT22;10824;51.632;4.950;2023-03-01T01:31:04;0.10;43.60
21331;DHT22;10824;51.632;4.950;2023-03-01T01:33:31;0.20;43.60
21331;DHT22;10824;51.632;4.950;2023-03-01T01:35:59;0.10;45.60
21331;DHT22;10824;51.632;4.950;2023-03-01T01:38:26;0.10;45.90
21331;DHT22;10824;51.632;4.950;2023-03-01T01:40:53;0.00;46.70
21331;DHT22;10824;51.632;4.950;2023-03-01T01:43:26;0.00;47.00
21331;DHT22;10824;51.632;4.950;2023-03-01T01:46:01;0.00;48.20
21331;DHT22;10824;51.632;4.950;2023-03-01T01:48:37;0.00;48.40
21331;DHT22;10824;51.632;4.950;2023-03-01T01:51:13;-0.10;48.70
21331;DHT22;10824;51.632;4.950;2023-03-01T01:53:45;-0.10;48.30
21331;DHT22;10824;51.632;4.950;2023-03-01T01:56:15;0.00;47.90
21331;DHT22;10824;51.632;4.950;2023-03-01T01:58:44;-0.10;48.40
21331;DHT22;10824;51.632;4.950;2023-03-01T02:01:12;-0.10;48.50
21331;DHT22;10824;51.632;4.950;2023-03-01T02:03:41;-0.10;48.50
21331;DHT22;10824;51.632;4.950;2023-03-01T02:06:29;-0.10;48.60
21331;DHT22;10824;51.632;4.950;2023-03-01T02:09:02;-0.10;48.20
21331;DHT22;10824;51.632;4.950;2023-03-01T02:11:32;-0.20;47.70
21331;DHT22;10824;51.632;4.950;2023-03-01T02:14:00;-0.20;48.10
21331;DHT22;10824;51.632;4.950;2023-03-01T02:16:27;-0.20;48.30
21331;DHT22;10824;51.632;4.950;2023-03-01T02:18:56;-0.20;48.20
21331;DHT22;10824;51.632;4.950;2023-03-01T02:27:15;-0.20;49.00
21331;DHT22;10824;51.632;4.950;2023-03-01T02:29:46;-0.20;49.00
21331;DHT22;10824;51.632;4.950;2023-03-01T02:32:14;-0.20;49.60
21331;DHT22;10824;51.632;4.950;2023-03-01T02:34:42;-0.30;49.80
21331;DHT22;10824;51.632;4.950;2023-03-01T02:37:14;-0.30;50.30
21331;DHT22;10824;51.632;4.950;2023-03-01T02:39:47;-0.30;50.50
21331;DHT22;10824;51.632;4.950;2023-03-01T02:42:19;-0.30;51.00
21331;DHT22;10824;51.632;4.950;2023-03-01T02:44:49;-0.40;50.90
21331;DHT22;10824;51.632;4.950;2023-03-01T02:47:16;-0.40;52.10
21331;DHT22;10824;51.632;4.950;2023-03-01T02:49:43;-0.50;52.40
21331;DHT22;10824;51.632;4.950;2023-03-01T02:52:44;-0.50;52.50
21331;DHT22;10824;51.632;4.950;2023-03-01T02:55:17;-0.50;53.90
21331;DHT22;10824;51.632;4.950;2023-03-01T02:57:46;-0.60;53.90
21331;DHT22;10824;51.632;4.950;2023-03-01T03:00:38;-0.60;54.90
21331;DHT22;10824;51.632;4.950;2023-03-01T03:03:07;-0.60;55.00
21331;DHT22;10824;51.632;4.950;2023-03-01T03:05:34;-0.60;54.70
21331;DHT22;10824;51.632;4.950;2023-03-01T03:08:02;-0.60;55.00
21331;DHT22;10824;51.632;4.950;2023-03-01T03:10:37;-0.60;54.80
21331;DHT22;10824;51.632;4.950;2023-03-01T03:13:12;-0.70;55.10
21331;DHT22;10824;51.632;4.950;2023-03-01T03:15:40;-0.60;56.30
21331;DHT22;10824;51.632;4.950;2023-03-01T03:18:11;-0.60;55.10
21331;DHT22;10824;51.632;4.950;2023-03-01T03:20:39;-0.60;54.50
21331;DHT22;10824;51.632;4.950;2023-03-01T03:23:07;-0.70;54.40
21331;DHT22;10824;51.632;4.950;2023-03-01T03:25:34;-0.60;55.90
21331;DHT22;10824;51.632;4.950;2023-03-01T03:28:06;-0.60;55.20
21331;DHT22;10824;51.632;4.950;2023-03-01T03:30:39;-0.70;55.10
21331;DHT22;10824;51.632;4.950;2023-03-01T03:33:08;-0.80;56.10
21331;DHT22;10824;51.632;4.950;2023-03-01T03:35:46;-0.70;56.20
21331;DHT22;10824;51.632;4.950;2023-03-01T03:38:16;-0.70;56.20
21331;DHT22;10824;51.632;4.950;2023-03-01T03:41:06;-0.70;56.20
21331;DHT22;10824;51.632;4.950;2023-03-01T03:43:34;-0.70;55.50
21331;DHT22;10824;51.632;4.950;2023-03-01T03:46:03;-0.80;56.10
21331;DHT22;10824;51.632;4.950;2023-03-01T03:48:42;-0.80;56.90
21331;DHT22;10824;51.632;4.950;2023-03-01T03:51:15;-0.80;56.80
21331;DHT22;10824;51.632;4.950;2023-03-01T03:53:43;-0.80;56.80
21331;DHT22;10824;51.632;4.950;2023-03-01T03:56:11;-0.90;57.40
21331;DHT22;10824;51.632;4.950;2023-03-01T03:58:38;-0.80;56.60
21331;DHT22;10824;51.632;4.950;2023-03-01T04:01:06;-0.80;56.60
21331;DHT22;10824;51.632;4.950;2023-03-01T04:03:33;-0.80;56.20
21331;DHT22;10824;51.632;4.950;2023-03-01T04:06:02;-0.90;56.30
21331;DHT22;10824;51.632;4.950;2023-03-01T04:08:30;-0.90;56.80
21331;DHT22;10824;51.632;4.950;2023-03-01T04:11:00;-0.80;57.50
21331;DHT22;10824;51.632;4.950;2023-03-01T04:13:48;-0.80;57.50
21331;DHT22;10824;51.632;4.950;2023-03-01T04:16:15;-0.90;57.40
21331;DHT22;10824;51.632;4.950;2023-03-01T04:18:42;-0.90;57.00
21331;DHT22;10824;51.632;4.950;2023-03-01T04:21:09;-0.80;56.20
21331;DHT22;10824;51.632;4.950;2023-03-01T04:23:38;-0.80;56.20
21331;DHT22;10824;51.632;4.950;2023-03-01T04:26:07;-0.90;57.50
21331;DHT22;10824;51.632;4.950;2023-03-01T04:28:37;-0.90;56.40
21331;DHT22;10824;51.632;4.950;2023-03-01T04:31:10;-1.00;56.90
21331;DHT22;10824;51.632;4.950;2023-03-01T04:33:50;-0.90;57.20
21331;DHT22;10824;51.632;4.950;2023-03-01T04:36:29;-1.00;57.00
21331;DHT22;10824;51.632;4.950;2023-03-01T04:38:57;-0.90;56.40
21331;DHT22;10824;51.632;4.950;2023-03-01T04:41:25;-1.00;56.40
21331;DHT22;10824;51.632;4.950;2023-03-01T04:43:52;-1.00;56.20
21331;DHT22;10824;51.632;4.950;2023-03-01T04:46:20;-1.00;56.90
21331;DHT22;10824;51.632;4.950;2023-03-01T04:48:48;-1.00;57.20
21331;DHT22;10824;51.632;4.950;2023-03-01T04:51:16;-1.10;58.30
21331;DHT22;10824;51.632;4.950;2023-03-01T04:53:44;-1.00;57.70
21331;DHT22;10824;51.632;4.950;2023-03-01T04:56:12;-1.00;57.20
21331;DHT22;10824;51.632;4.950;2023-03-01T04:58:41;-1.00;56.90
21331;DHT22;10824;51.632;4.950;2023-03-01T05:01:13;-1.10;57.30
21331;DHT22;10824;51.632;4.950;2023-03-01T05:03:45;-1.00;57.30
21331;DHT22;10824;51.632;4.950;2023-03-01T05:06:13;-1.10;58.80
21331;DHT22;10824;51.632;4.950;2023-03-01T05:08:41;-1.10;59.70
21331;DHT22;10824;51.632;4.950;2023-03-01T05:11:09;-1.10;59.20
21331;DHT22;10824;51.632;4.950;2023-03-01T05:13:37;-1.10;59.20
21331;DHT22;10824;51.632;4.950;2023-03-01T05:16:06;-1.10;60.10
21331;DHT22;10824;51.632;4.950;2023-03-01T05:18:39;-1.10;60.10
21331;DHT22;10824;51.632;4.950;2023-03-01T05:21:09;-1.10;60.80
21331;DHT22;10824;51.632;4.950;2023-03-01T05:23:37;-1.20;61.70
21331;DHT22;10824;51.632;4.950;2023-03-01T05:26:06;-1.20;60.70
21331;DHT22;10824;51.632;4.950;2023-03-01T05:28:51;-1.20;60.30
21331;DHT22;10824;51.632;4.950;2023-03-01T05:31:18;-1.10;60.60
21331;DHT22;10824;51.632;4.950;2023-03-01T05:33:45;-1.10;59.70
21331;DHT22;10824;51.632;4.950;2023-03-01T05:36:12;-1.10;60.30
21331;DHT22;10824;51.632;4.950;2023-03-01T05:38:39;-1.10;60.50
21331;DHT22;10824;51.632;4.950;2023-03-01T05:41:14;-1.10;59.50
21331;DHT22;10824;51.632;4.950;2023-03-01T05:43:41;-1.20;59.70
21331;DHT22;10824;51.632;4.950;2023-03-01T05:46:11;-1.10;60.00
21331;DHT22;10824;51.632;4.950;2023-03-01T05:48:40;-1.10;59.90
21331;DHT22;10824;51.632;4.950;2023-03-01T05:51:07;-1.10;59.70
21331;DHT22;10824;51.632;4.950;2023-03-01T05:53:34;-1.20;59.70
21331;DHT22;10824;51.632;4.950;2023-03-01T05:56:03;-1.10;59.80
21331;DHT22;10824;51.632;4.950;2023-03-01T05:58:30;-1.20;59.80
21331;DHT22;10824;51.632;4.950;2023-03-01T06:00:57;-1.20;59.70
21331;DHT22;10824;51.632;4.950;2023-03-01T06:03:25;-1.20;59.40
21331;DHT22;10824;51.632;4.950;2023-03-01T06:05:56;-1.20;59.00
21331;DHT22;10824;51.632;4.950;2023-03-01T06:08:25;-1.20;59.90
21331;DHT22;10824;51.632;4.950;2023-03-01T06:10:54;-1.20;59.90
21331;DHT22;10824;51.632;4.950;2023-03-01T06:13:22;-1.30;60.40
21331;DHT22;10824;51.632;4.950;2023-03-01T06:15:50;-1.30;60.70
21331;DHT22;10824;51.632;4.950;2023-03-01T06:18:17;-1.30;60.80
21331;DHT22;10824;51.632;4.950;2023-03-01T06:20:55;-1.30;60.80
21331;DHT22;10824;51.632;4.950;2023-03-01T06:23:23;-1.30;60.10
21331;DHT22;10824;51.632;4.950;2023-03-01T06:25:51;-1.30;60.30
21331;DHT22;10824;51.632;4.950;2023-03-01T06:28:18;-1.30;61.00
21331;DHT22;10824;51.632;4.950;2023-03-01T06:30:45;-1.30;60.90
21331;DHT22;10824;51.632;4.950;2023-03-01T06:33:13;-1.30;61.50
21331;DHT22;10824;51.632;4.950;2023-03-01T06:35:40;-1.30;60.80
21331;DHT22;10824;51.632;4.950;2023-03-01T06:38:07;-1.40;59.80
21331;DHT22;10824;51.632;4.950;2023-03-01T06:40:34;-1.30;60.50
21331;DHT22;10824;51.632;4.950;2023-03-01T06:43:03;-1.40;59.50
21331;DHT22;10824;51.632;4.950;2023-03-01T06:45:31;-1.40;60.50
21331;DHT22;10824;51.632;4.950;2023-03-01T06:48:06;-1.30;58.50
21331;DHT22;10824;51.632;4.950;2023-03-01T06:50:34;-1.40;58.50
21331;DHT22;10824;51.632;4.950;2023-03-01T06:53:02;-1.40;59.40
21331;DHT22;10824;51.632;4.950;2023-03-01T06:55:30;-1.30;59.60
21331;DHT22;10824;51.632;4.950;2023-03-01T06:58:02;-1.30;59.00
21331;DHT22;10824;51.632;4.950;2023-03-01T07:00:29;-1.30;58.40
21331;DHT22;10824;51.632;4.950;2023-03-01T07:03:01;-1.30;59.10
21331;DHT22;10824;51.632;4.950;2023-03-01T07:05:30;-1.30;59.00
21331;DHT22;10824;51.632;4.950;2023-03-01T07:07:57;-1.20;59.00
21331;DHT22;10824;51.632;4.950;2023-03-01T07:10:24;-1.20;59.60
21331;DHT22;10824;51.632;4.950;2023-03-01T07:12:55;-1.20;60.20
21331;DHT22;10824;51.632;4.950;2023-03-01T07:15:25;-1.20;60.00
21331;DHT22;10824;51.632;4.950;2023-03-01T07:17:52;-1.20;59.60
21331;DHT22;10824;51.632;4.950;2023-03-01T07:20:20;-1.20;60.60
21331;DHT22;10824;51.632;4.950;2023-03-01T07:22:53;-1.20;60.30
21331;DHT22;10824;51.632;4.950;2023-03-01T07:25:20;-1.10;61.80
21331;DHT22;10824;51.632;4.950;2023-03-01T07:27:52;-1.10;61.80
21331;DHT22;10824;51.632;4.950;2023-03-01T07:30:19;-1.10;60.30
21331;DHT22;10824;51.632;4.950;2023-03-01T07:32:46;-1.00;60.50
21331;DHT22;10824;51.632;4.950;2023-03-01T07:35:14;-1.00;60.40
21331;DHT22;10824;51.632;4.950;2023-03-01T07:37:41;-1.00;59.60
21331;DHT22;10824;51.632;4.950;2023-03-01T07:40:09;-0.90;59.70
21331;DHT22;10824;51.632;4.950;2023-03-01T07:42:37;-0.90;59.70
21331;DHT22;10824;51.632;4.950;2023-03-01T07:45:05;-0.90;59.60
21331;DHT22;10824;51.632;4.950;2023-03-01T07:47:32;-0.80;59.60
21331;DHT22;10824;51.632;4.950;2023-03-01T07:49:59;-0.70;59.70
21331;DHT22;10824;51.632;4.950;2023-03-01T07:52:29;-0.60;60.00
21331;DHT22;10824;51.632;4.950;2023-03-01T07:54:57;-0.60;58.30
21331;DHT22;10824;51.632;4.950;2023-03-01T07:57:24;-0.50;57.90
21331;DHT22;10824;51.632;4.950;2023-03-01T07:59:51;-0.30;57.90
21331;DHT22;10824;51.632;4.950;2023-03-01T08:02:18;-0.20;56.50
21331;DHT22;10824;51.632;4.950;2023-03-01T08:04:45;-0.10;56.10
21331;DHT22;10824;51.632;4.950;2023-03-01T08:07:13;0.10;55.90
21331;DHT22;10824;51.632;4.950;2023-03-01T08:09:40;0.20;54.40
21331;DHT22;10824;51.632;4.950;2023-03-01T08:12:07;0.30;54.50
21331;DHT22;10824;51.632;4.950;2023-03-01T08:14:34;0.40;54.00
21331;DHT22;10824;51.632;4.950;2023-03-01T08:17:01;0.40;53.50
21331;DHT22;10824;51.632;4.950;2023-03-01T08:19:30;0.50;53.30
21331;DHT22;10824;51.632;4.950;2023-03-01T08:21:57;0.60;53.20
21331;DHT22;10824;51.632;4.950;2023-03-01T08:24:25;0.70;52.40
21331;DHT22;10824;51.632;4.950;2023-03-01T08:26:52;0.80;51.90
21331;DHT22;10824;51.632;4.950;2023-03-01T08:29:20;0.90;51.30
21331;DHT22;10824;51.632;4.950;2023-03-01T08:31:47;1.00;50.90
21331;DHT22;10824;51.632;4.950;2023-03-01T08:34:16;1.10;49.90
21331;DHT22;10824;51.632;4.950;2023-03-01T08:36:45;1.20;48.30
21331;DHT22;10824;51.632;4.950;2023-03-01T08:39:14;1.20;47.90
21331;DHT22;10824;51.632;4.950;2023-03-01T08:41:42;1.30;47.80
21331;DHT22;10824;51.632;4.950;2023-03-01T08:44:13;1.40;46.50
21331;DHT22;10824;51.632;4.950;2023-03-01T08:46:41;1.50;45.30
21331;DHT22;10824;51.632;4.950;2023-03-01T08:49:12;1.60;46.10
21331;DHT22;10824;51.632;4.950;2023-03-01T08:51:40;1.60;44.50
21331;DHT22;10824;51.632;4.950;2023-03-01T08:54:15;1.60;43.70
21331;DHT22;10824;51.632;4.950;2023-03-01T08:56:42;1.80;42.40
21331;DHT22;10824;51.632;4.950;2023-03-01T08:59:11;1.90;40.50
21331;DHT22;10824;51.632;4.950;2023-03-01T09:01:38;2.00;39.80
21331;DHT22;10824;51.632;4.950;2023-03-01T09:04:07;2.10;39.30
21331;DHT22;10824;51.632;4.950;2023-03-01T09:06:34;2.20;38.80
21331;DHT22;10824;51.632;4.950;2023-03-01T09:09:02;2.20;37.70
21331;DHT22;10824;51.632;4.950;2023-03-01T09:11:30;2.30;38.10
21331;DHT22;10824;51.632;4.950;2023-03-01T09:13:57;2.40;36.10
21331;DHT22;10824;51.632;4.950;2023-03-01T09:16:24;2.50;36.10
21331;DHT22;10824;51.632;4.950;2023-03-01T09:18:53;2.60;34.40
21331;DHT22;10824;51.632;4.950;2023-03-01T09:21:22;2.70;32.90
21331;DHT22;10824;51.632;4.950;2023-03-01T09:24:05;2.80;31.40
21331;DHT22;10824;51.632;4.950;2023-03-01T09:26:33;3.00;30.30
21331;DHT22;10824;51.632;4.950;2023-03-01T09:29:01;3.00;32.30
21331;DHT22;10824;51.632;4.950;2023-03-01T09:31:28;3.10;29.10
21331;DHT22;10824;51.632;4.950;2023-03-01T09:33:56;3.20;28.90
21331;DHT22;10824;51.632;4.950;2023-03-01T09:36:24;3.30;28.80
21331;DHT22;10824;51.632;4.950;2023-03-01T09:38:52;3.30;27.30
21331;DHT22;10824;51.632;4.950;2023-03-01T09:41:30;3.50;25.10
21331;DHT22;10824;51.632;4.950;2023-03-01T09:46:54;3.60;21.90
21331;DHT22;10824;51.632;4.950;2023-03-01T09:49:23;3.60;21.10
21331;DHT22;10824;51.632;4.950;2023-03-01T09:52:03;3.80;21.60
21331;DHT22;10824;51.632;4.950;2023-03-01T09:54:33;4.00;20.20
21331;DHT22;10824;51.632;4.950;2023-03-01T09:57:11;4.00;18.90
21331;DHT22;10824;51.632;4.950;2023-03-01T10:00:19;4.00;16.20
21331;DHT22;10824;51.632;4.950;2023-03-01T10:10:39;4.40;12.00
21331;DHT22;10824;51.632;4.950;2023-03-01T10:13:48;4.40;13.40
21331;DHT22;10824;51.632;4.950;2023-03-01T10:16:42;4.50;11.40
21331;DHT22;10824;51.632;4.950;2023-03-01T10:19:14;4.60;10.40
21331;DHT22;10824;51.632;4.950;2023-03-01T10:21:45;4.80;9.60
21331;DHT22;10824;51.632;4.950;2023-03-01T10:24:15;4.80;8.60
21331;DHT22;10824;51.632;4.950;2023-03-01T10:26:53;4.90;8.10
21331;DHT22;10824;51.632;4.950;2023-03-01T10:29:30;4.80;5.30
21331;DHT22;10824;51.632;4.950;2023-03-01T10:31:58;4.90;6.50
21331;DHT22;10824;51.632;4.950;2023-03-01T10:34:30;5.00;8.10
21331;DHT22;10824;51.632;4.950;2023-03-01T10:37:10;5.00;3.20
21331;DHT22;10824;51.632;4.950;2023-03-01T10:40:11;5.00;4.90
21331;DHT22;10824;51.632;4.950;2023-03-01T10:42:46;5.10;6.00
21331;DHT22;10824;51.632;4.950;2023-03-01T10:48:13;5.20;4.40
21331;DHT22;10824;51.632;4.950;2023-03-01T10:50:43;5.30;5.50
21331;DHT22;10824;51.632;4.950;2023-03-01T10:56:06;5.50;3.20
21331;DHT22;10824;51.632;4.950;2023-03-01T10:58:37;5.40;1.90
21331;DHT22;10824;51.632;4.950;2023-03-01T11:01:23;5.40;1.00
21331;DHT22;10824;51.632;4.950;2023-03-01T11:06:35;5.60;2.10
21331;DHT22;10824;51.632;4.950;2023-03-01T11:09:22;5.40;2.60
21331;DHT22;10824;51.632;4.950;2023-03-01T11:11:55;5.60;3.30
21331;DHT22;10824;51.632;4.950;2023-03-01T11:14:24;5.50;1.30
21331;DHT22;10824;51.632;4.950;2023-03-01T11:17:02;5.50;2.30
21331;DHT22;10824;51.632;4.950;2023-03-01T11:19:30;5.60;1.30
21331;DHT22;10824;51.632;4.950;2023-03-01T11:24:41;5.70;1.00
21331;DHT22;10824;51.632;4.950;2023-03-01T11:27:25;5.90;2.20
21331;DHT22;10824;51.632;4.950;2023-03-01T11:30:07;6.00;1.40
21331;DHT22;10824;51.632;4.950;2023-03-01T11:32:43;6.00;1.00
21331;DHT22;10824;51.632;4.950;2023-03-01T11:35:24;6.00;1.00
21331;DHT22;10824;51.632;4.950;2023-03-01T11:37:59;6.20;1.00
21331;DHT22;10824;51.632;4.950;2023-03-01T11:40:35;6.10;1.00
21331;DHT22;10824;51.632;4.950;2023-03-01T11:57:55;6.40;1.00
21331;DHT22;10824;51.632;4.950;2023-03-01T12:05:54;6.60;1.00
21331;DHT22;10824;51.632;4.950;2023-03-01T12:17:00;6.90;1.00
21331;DHT22;10824;51.632;4.950;2023-03-01T12:20:06;6.80;1.00
21331;DHT22;10824;51.632;4.950;2023-03-01T12:25:20;6.90;1.00
21331;DHT22;10824;51.632;4.950;2023-03-01T12:31:16;7.00;1.00
21331;DHT22;10824;51.632;4.950;2023-03-01T12:41:56;7.00;1.00
21331;DHT22;10824;51.632;4.950;2023-03-01T12:47:56;7.40;1.00
21331;DHT22;10824;51.632;4.950;2023-03-01T12:50:43;7.50;1.00
21331;DHT22;10824;51.632;4.950;2023-03-01T12:53:25;7.30;1.00
21331;DHT22;10824;51.632;4.950;2023-03-01T12:55:58;7.40;1.00
21331;DHT22;10824;51.632;4.950;2023-03-01T12:58:39;7.40;1.00
21331;DHT22;10824;51.632;4.950;2023-03-01T13:04:29;7.50;1.00
21331;DHT22;10824;51.632;4.950;2023-03-01T13:10:39;7.60;1.00
21331;DHT22;10824;51.632;4.950;2023-03-01T13:13:14;7.40;1.00
21331;DHT22;10824;51.632;4.950;2023-03-01T13:15:45;7.30;1.00
21331;DHT22;10824;51.632;4.950;2023-03-01T13:21:09;7.60;1.00
21331;DHT22;10824;51.632;4.950;2023-03-01T13:23:39;7.40;1.00
21331;DHT22;10824;51.632;4.950;2023-03-01T13:26:13;7.50;1.00
21331;DHT22;10824;51.632;4.950;2023-03-01T13:28:42;7.40;1.00
21331;DHT22;10824;51.632;4.950;2023-03-01T13:33:52;7.40;1.00
21331;DHT22;10824;51.632;4.950;2023-03-01T13:36:48;7.40;1.00
21331;DHT22;10824;51.632;4.950;2023-03-01T13:39:39;7.40;1.00
21331;DHT22;10824;51.632;4.950;2023-03-01T13:42:37;7.50;1.00
21331;DHT22;10824;51.632;4.950;2023-03-01T13:45:20;7.60;1.00
21331;DHT22;10824;51.632;4.950;2023-03-01T13:48:01;7.70;1.00
21331;DHT22;10824;51.632;4.950;2023-03-01T13:50:36;7.80;1.00
21331;DHT22;10824;51.632;4.950;2023-03-01T13:53:14;7.70;1.00
21331;DHT22;10824;51.632;4.950;2023-03-01T13:55:45;7.80;1.00
21331;DHT22;10824;51.632;4.950;2023-03-01T13:58:20;7.80;1.00
21331;DHT22;10824;51.632;4.950;2023-03-01T14:01:05;7.60;1.00
21331;DHT22;10824;51.632;4.950;2023-03-01T14:03:39;7.70;1.00
21331;DHT22;10824;51.632;4.950;2023-03-01T14:06:13;7.70;1.00
21331;DHT22;10824;51.632;4.950;2023-03-01T14:08:46;7.80;1.00
21331;DHT22;10824;51.632;4.950;2023-03-01T14:11:49;7.60;1.00
21331;DHT22;10824;51.632;4.950;2023-03-01T14:19:26;7.70;1.00
21331;DHT22;10824;51.632;4.950;2023-03-01T14:24:46;7.80;1.00
21331;DHT22;10824;51.632;4.950;2023-03-01T14:27:16;7.90;1.00
21331;DHT22;10824;51.632;4.950;2023-03-01T14:29:45;7.90;1.00
21331;DHT22;10824;51.632;4.950;2023-03-01T14:32:23;7.80;1.00
21331;DHT22;10824;51.632;4.950;2023-03-01T14:34:51;8.10;1.00
21331;DHT22;10824;51.632;4.950;2023-03-01T14:37:25;7.90;1.00
21331;DHT22;10824;51.632;4.950;2023-03-01T14:39:56;8.00;1.00
21331;DHT22;10824;51.632;4.950;2023-03-01T14:42:27;8.00;1.00
21331;DHT22;10824;51.632;4.950;2023-03-01T14:44:57;7.90;1.00
21331;DHT22;10824;51.632;4.950;2023-03-01T14:47:32;7.90;1.00
21331;DHT22;10824;51.632;4.950;2023-03-01T14:52:50;7.90;1.00
21331;DHT22;10824;51.632;4.950;2023-03-01T14:55:21;8.10;1.00
21331;DHT22;10824;51.632;4.950;2023-03-01T14:57:51;7.90;1.00
21331;DHT22;10824;51.632;4.950;2023-03-01T15:00:24;8.00;1.00
21331;DHT22;10824;51.632;4.950;2023-03-01T15:02:56;7.90;1.00
21331;DHT22;10824;51.632;4.950;2023-03-01T15:05:31;7.90;1.00
21331;DHT22;10824;51.632;4.950;2023-03-01T15:08:01;8.10;1.00
21331;DHT22;10824;51.632;4.950;2023-03-01T15:10:34;8.00;1.00
21331;DHT22;10824;51.632;4.950;2023-03-01T15:13:13;7.80;1.00
21331;DHT22;10824;51.632;4.950;2023-03-01T15:15:47;7.80;1.00
21331;DHT22;10824;51.632;4.950;2023-03-01T15:18:34;7.80;1.00
21331;DHT22;10824;51.632;4.950;2023-03-01T15:21:23;7.80;1.00
21331;DHT22;10824;51.632;4.950;2023-03-01T15:23:55;7.90;1.00
21331;DHT22;10824;51.632;4.950;2023-03-01T15:26:37;7.80;1.00
21331;DHT22;10824;51.632;4.950;2023-03-01T15:29:17;7.90;1.00
21331;DHT22;10824;51.632;4.950;2023-03-01T15:31:55;7.80;1.00
21331;DHT22;10824;51.632;4.950;2023-03-01T15:34:28;7.80;1.00
21331;DHT22;10824;51.632;4.950;2023-03-01T15:36:59;7.90;1.00
21331;DHT22;10824;51.632;4.950;2023-03-01T15:47:52;7.50;1.00
21331;DHT22;10824;51.632;4.950;2023-03-01T15:50:28;7.50;1.00
21331;DHT22;10824;51.632;4.950;2023-03-01T15:52:58;7.40;1.00
21331;DHT22;10824;51.632;4.950;2023-03-01T15:55:28;7.40;1.00
21331;DHT22;10824;51.632;4.950;2023-03-01T15:58:09;7.30;1.00
21331;DHT22;10824;51.632;4.950;2023-03-01T16:00:37;7.20;1.00
21331;DHT22;10824;51.632;4.950;2023-03-01T16:03:23;7.10;1.00
21331;DHT22;10824;51.632;4.950;2023-03-01T16:05:50;7.00;1.00
21331;DHT22;10824;51.632;4.950;2023-03-01T16:08:18;7.00;1.00
21331;DHT22;10824;51.632;4.950;2023-03-01T16:10:46;6.90;1.00
21331;DHT22;10824;51.632;4.950;2023-03-01T16:13:15;6.90;1.00
21331;DHT22;10824;51.632;4.950;2023-03-01T16:15:43;6.90;1.00
21331;DHT22;10824;51.632;4.950;2023-03-01T16:18:12;6.80;1.00
21331;DHT22;10824;51.632;4.950;2023-03-01T16:20:39;6.80;1.00
21331;DHT22;10824;51.632;4.950;2023-03-01T16:23:08;6.80;1.00
21331;DHT22;10824;51.632;4.950;2023-03-01T16:25:37;6.70;1.00
21331;DHT22;10824;51.632;4.950;2023-03-01T16:28:04;6.70;1.00
21331;DHT22;10824;51.632;4.950;2023-03-01T16:30:37;6.60;1.00
21331;DHT22;10824;51.632;4.950;2023-03-01T16:33:05;6.60;1.00
21331;DHT22;10824;51.632;4.950;2023-03-01T16:35:53;6.50;1.00
21331;DHT22;10824;51.632;4.950;2023-03-01T16:38:20;6.50;1.00
21331;DHT22;10824;51.632;4.950;2023-03-01T16:40:49;6.40;1.00
21331;DHT22;10824;51.632;4.950;2023-03-01T16:43:16;6.40;1.00
21331;DHT22;10824;51.632;4.950;2023-03-01T16:45:43;6.40;1.00
21331;DHT22;10824;51.632;4.950;2023-03-01T16:48:12;6.40;1.00
21331;DHT22;10824;51.632;4.950;2023-03-01T16:50:40;6.30;1.00
21331;DHT22;10824;51.632;4.950;2023-03-01T16:53:07;6.30;1.00
21331;DHT22;10824;51.632;4.950;2023-03-01T16:55:38;6.20;1.00
21331;DHT22;10824;51.632;4.950;2023-03-01T16:58:12;6.20;1.00
21331;DHT22;10824;51.632;4.950;2023-03-01T17:00:39;6.20;1.00
21331;DHT22;10824;51.632;4.950;2023-03-01T17:03:06;6.20;1.00
21331;DHT22;10824;51.632;4.950;2023-03-01T17:05:34;6.10;1.00
21331;DHT22;10824;51.632;4.950;2023-03-01T17:08:01;6.10;1.00
21331;DHT22;10824;51.632;4.950;2023-03-01T17:10:28;6.00;1.00
21331;DHT22;10824;51.632;4.950;2023-03-01T17:12:57;6.00;1.00
21331;DHT22;10824;51.632;4.950;2023-03-01T17:15:24;5.90;1.00
21331;DHT22;10824;51.632;4.950;2023-03-01T17:17:51;5.90;1.00
21331;DHT22;10824;51.632;4.950;2023-03-01T17:20:18;5.80;1.00
21331;DHT22;10824;51.632;4.950;2023-03-01T17:22:45;5.80;1.00
21331;DHT22;10824;51.632;4.950;2023-03-01T17:25:13;5.80;1.00
21331;DHT22;10824;51.632;4.950;2023-03-01T17:27:41;5.70;1.00
21331;DHT22;10824;51.632;4.950;2023-03-01T17:30:10;5.60;1.00
21331;DHT22;10824;51.632;4.950;2023-03-01T17:32:39;5.60;1.00
21331;DHT22;10824;51.632;4.950;2023-03-01T17:35:07;5.50;1.00
21331;DHT22;10824;51.632;4.950;2023-03-01T17:37:34;5.50;1.00
21331;DHT22;10824;51.632;4.950;2023-03-01T17:40:03;5.40;1.00
21331;DHT22;10824;51.632;4.950;2023-03-01T17:42:30;5.40;1.00
21331;DHT22;10824;51.632;4.950;2023-03-01T17:44:57;5.50;1.00
21331;DHT22;10824;51.632;4.950;2023-03-01T17:47:24;5.50;1.00
21331;DHT22;10824;51.632;4.950;2023-03-01T17:49:51;5.40;1.00
21331;DHT22;10824;51.632;4.950;2023-03-01T17:52:18;5.40;1.00
21331;DHT22;10824;51.632;4.950;2023-03-01T17:54:50;5.30;1.00
21331;DHT22;10824;51.632;4.950;2023-03-01T17:57:17;5.20;1.00
21331;DHT22;10824;51.632;4.950;2023-03-01T17:59:44;5.20;1.00